Terminal Aerodrome Forecast
Issued by NWS Twin Cities, MN

Home | Current Version | Previous Version | Graphics & Text | Print | Product List | Glossary On
Versions: 1 2 3 4 5 6 7 8 9 10 11 12 13 14 15 16 17 18 19
000
FTUS43 KMPX 281100
TAFSTC
TAF
KSTC 281132Z 2812/2912 27011KT P6SM BKN050
     FM281400 29014G23KT P6SM BKN015 OVC040
     FM281800 28020G30KT P6SM SCT025 OVC040
     FM290100 30015G22KT P6SM BKN050
     FM290600 31010KT P6SM OVC100=

USA.gov is the U.S. government's official web portal to all federal, state and local government web resources and services.